sensor_id;sensor_type;location;lat;lon;timestamp;temperature;humidity
6106;DHT22;3083;51.508;7.966;2023-02-01T00:01:09;3.70;99.90
6106;DHT22;3083;51.508;7.966;2023-02-01T00:03:36;3.70;99.90
6106;DHT22;3083;51.508;7.966;2023-02-01T00:06:04;3.70;99.90
6106;DHT22;3083;51.508;7.966;2023-02-01T00:08:31;3.70;99.90
6106;DHT22;3083;51.508;7.966;2023-02-01T00:10:59;3.70;99.90
6106;DHT22;3083;51.508;7.966;2023-02-01T00:13:28;3.70;99.90
6106;DHT22;3083;51.508;7.966;2023-02-01T00:16:02;3.70;99.90
6106;DHT22;3083;51.508;7.966;2023-02-01T00:18:31;3.70;99.90
6106;DHT22;3083;51.508;7.966;2023-02-01T00:20:58;3.70;99.90
6106;DHT22;3083;51.508;7.966;2023-02-01T00:23:24;3.80;99.90
6106;DHT22;3083;51.508;7.966;2023-02-01T00:25:51;3.80;99.90
6106;DHT22;3083;51.508;7.966;2023-02-01T00:28:18;3.80;99.90
6106;DHT22;3083;51.508;7.966;2023-02-01T00:30:45;3.90;99.90
6106;DHT22;3083;51.508;7.966;2023-02-01T00:33:12;3.90;99.90
6106;DHT22;3083;51.508;7.966;2023-02-01T00:35:40;4.00;99.90
6106;DHT22;3083;51.508;7.966;2023-02-01T00:38:07;4.10;99.90
6106;DHT22;3083;51.508;7.966;2023-02-01T00:40:34;4.20;99.90
6106;DHT22;3083;51.508;7.966;2023-02-01T00:43:01;4.20;99.90
6106;DHT22;3083;51.508;7.966;2023-02-01T00:45:28;4.30;99.90
6106;DHT22;3083;51.508;7.966;2023-02-01T00:47:55;4.30;99.90
6106;DHT22;3083;51.508;7.966;2023-02-01T00:50:22;4.40;99.90
6106;DHT22;3083;51.508;7.966;2023-02-01T00:52:50;4.50;99.90
6106;DHT22;3083;51.508;7.966;2023-02-01T00:55:17;4.50;99.90
6106;DHT22;3083;51.508;7.966;2023-02-01T00:57:44;4.50;99.90
6106;DHT22;3083;51.508;7.966;2023-02-01T01:00:11;4.60;99.90
6106;DHT22;3083;51.508;7.966;2023-02-01T01:02:38;4.70;99.90
6106;DHT22;3083;51.508;7.966;2023-02-01T01:05:06;4.80;99.90
6106;DHT22;3083;51.508;7.966;2023-02-01T01:07:33;4.80;99.90
6106;DHT22;3083;51.508;7.966;2023-02-01T01:10:01;4.80;99.90
6106;DHT22;3083;51.508;7.966;2023-02-01T01:12:28;4.90;99.90
6106;DHT22;3083;51.508;7.966;2023-02-01T01:14:55;4.90;99.90
6106;DHT22;3083;51.508;7.966;2023-02-01T01:17:22;4.90;99.90
6106;DHT22;3083;51.508;7.966;2023-02-01T01:19:49;4.90;99.90
6106;DHT22;3083;51.508;7.966;2023-02-01T01:22:16;5.00;99.90
6106;DHT22;3083;51.508;7.966;2023-02-01T01:24:43;4.90;99.90
6106;DHT22;3083;51.508;7.966;2023-02-01T01:27:11;4.90;99.90
6106;DHT22;3083;51.508;7.966;2023-02-01T01:29:38;5.00;99.90
6106;DHT22;3083;51.508;7.966;2023-02-01T01:32:05;4.90;99.90
6106;DHT22;3083;51.508;7.966;2023-02-01T01:34:32;4.90;99.90
6106;DHT22;3083;51.508;7.966;2023-02-01T01:36:59;4.90;99.90
6106;DHT22;3083;51.508;7.966;2023-02-01T01:39:26;4.90;99.90
6106;DHT22;3083;51.508;7.966;2023-02-01T01:41:53;4.90;99.90
6106;DHT22;3083;51.508;7.966;2023-02-01T01:44:59;4.90;99.90
6106;DHT22;3083;51.508;7.966;2023-02-01T01:47:28;4.90;99.90
6106;DHT22;3083;51.508;7.966;2023-02-01T01:49:57;4.90;99.90
6106;DHT22;3083;51.508;7.966;2023-02-01T01:52:24;4.90;99.90
6106;DHT22;3083;51.508;7.966;2023-02-01T01:54:52;4.90;99.90
6106;DHT22;3083;51.508;7.966;2023-02-01T01:57:21;4.90;99.90
6106;DHT22;3083;51.508;7.966;2023-02-01T01:59:54;4.90;99.90
6106;DHT22;3083;51.508;7.966;2023-02-01T02:02:23;4.90;99.90
6106;DHT22;3083;51.508;7.966;2023-02-01T02:04:51;4.90;99.90
6106;DHT22;3083;51.508;7.966;2023-02-01T02:07:23;4.90;99.90
6106;DHT22;3083;51.508;7.966;2023-02-01T02:09:51;4.90;99.90
6106;DHT22;3083;51.508;7.966;2023-02-01T02:12:18;4.90;99.90
6106;DHT22;3083;51.508;7.966;2023-02-01T02:14:45;4.90;99.90
6106;DHT22;3083;51.508;7.966;2023-02-01T02:17:28;4.90;99.90
6106;DHT22;3083;51.508;7.966;2023-02-01T02:23:44;4.80;99.90
6106;DHT22;3083;51.508;7.966;2023-02-01T02:26:35;4.90;99.90
6106;DHT22;3083;51.508;7.966;2023-02-01T02:29:33;4.80;99.90
6106;DHT22;3083;51.508;7.966;2023-02-01T02:32:31;4.80;99.90
6106;DHT22;3083;51.508;7.966;2023-02-01T02:35:06;4.80;99.90
6106;DHT22;3083;51.508;7.966;2023-02-01T02:37:40;4.80;99.90
6106;DHT22;3083;51.508;7.966;2023-02-01T02:40:15;4.80;99.90
6106;DHT22;3083;51.508;7.966;2023-02-01T02:42:52;4.90;99.90
6106;DHT22;3083;51.508;7.966;2023-02-01T02:45:44;4.90;99.90
6106;DHT22;3083;51.508;7.966;2023-02-01T02:48:37;4.90;99.90
6106;DHT22;3083;51.508;7.966;2023-02-01T02:51:12;4.90;99.90
6106;DHT22;3083;51.508;7.966;2023-02-01T02:54:02;4.90;99.90
6106;DHT22;3083;51.508;7.966;2023-02-01T02:56:53;4.90;99.90
6106;DHT22;3083;51.508;7.966;2023-02-01T02:59:40;4.90;99.90
6106;DHT22;3083;51.508;7.966;2023-02-01T03:02:27;4.90;99.90
6106;DHT22;3083;51.508;7.966;2023-02-01T03:05:12;4.90;99.90
6106;DHT22;3083;51.508;7.966;2023-02-01T03:07:57;4.90;99.90
6106;DHT22;3083;51.508;7.966;2023-02-01T03:10:33;4.90;99.90
6106;DHT22;3083;51.508;7.966;2023-02-01T03:13:05;4.90;99.90
6106;DHT22;3083;51.508;7.966;2023-02-01T03:15:36;4.90;99.90
6106;DHT22;3083;51.508;7.966;2023-02-01T03:18:07;5.00;99.90
6106;DHT22;3083;51.508;7.966;2023-02-01T03:20:36;5.00;99.90
6106;DHT22;3083;51.508;7.966;2023-02-01T03:23:06;4.90;99.90
6106;DHT22;3083;51.508;7.966;2023-02-01T03:25:34;4.90;99.90
6106;DHT22;3083;51.508;7.966;2023-02-01T03:28:06;5.00;99.90
6106;DHT22;3083;51.508;7.966;2023-02-01T03:30:36;5.00;99.90
6106;DHT22;3083;51.508;7.966;2023-02-01T03:33:06;5.00;99.90
6106;DHT22;3083;51.508;7.966;2023-02-01T03:35:43;5.00;99.90
6106;DHT22;3083;51.508;7.966;2023-02-01T03:38:20;5.00;99.90
6106;DHT22;3083;51.508;7.966;2023-02-01T03:40:52;5.00;99.90
6106;DHT22;3083;51.508;7.966;2023-02-01T03:43:21;4.90;99.90
6106;DHT22;3083;51.508;7.966;2023-02-01T03:45:52;4.90;99.90
6106;DHT22;3083;51.508;7.966;2023-02-01T03:48:22;4.90;99.90
6106;DHT22;3083;51.508;7.966;2023-02-01T03:50:52;4.90;99.90
6106;DHT22;3083;51.508;7.966;2023-02-01T03:53:26;4.90;99.90
6106;DHT22;3083;51.508;7.966;2023-02-01T03:55:54;4.90;99.90
6106;DHT22;3083;51.508;7.966;2023-02-01T03:58:23;4.90;99.90
6106;DHT22;3083;51.508;7.966;2023-02-01T04:00:54;4.90;99.90
6106;DHT22;3083;51.508;7.966;2023-02-01T04:03:23;4.90;99.90
6106;DHT22;3083;51.508;7.966;2023-02-01T04:05:51;4.90;99.90
6106;DHT22;3083;51.508;7.966;2023-02-01T04:08:18;4.90;99.90
6106;DHT22;3083;51.508;7.966;2023-02-01T04:10:46;4.80;99.90
6106;DHT22;3083;51.508;7.966;2023-02-01T04:13:16;4.90;99.90
6106;DHT22;3083;51.508;7.966;2023-02-01T04:15:43;4.90;99.90
6106;DHT22;3083;51.508;7.966;2023-02-01T04:18:11;4.80;99.90
6106;DHT22;3083;51.508;7.966;2023-02-01T04:20:38;4.80;99.90
6106;DHT22;3083;51.508;7.966;2023-02-01T04:23:04;4.80;99.90
6106;DHT22;3083;51.508;7.966;2023-02-01T04:25:31;4.80;99.90
6106;DHT22;3083;51.508;7.966;2023-02-01T04:28:00;4.90;99.90
6106;DHT22;3083;51.508;7.966;2023-02-01T04:30:26;4.80;99.90
6106;DHT22;3083;51.508;7.966;2023-02-01T04:32:54;4.90;99.90
6106;DHT22;3083;51.508;7.966;2023-02-01T04:35:21;4.90;99.90
6106;DHT22;3083;51.508;7.966;2023-02-01T04:37:51;4.90;99.90
6106;DHT22;3083;51.508;7.966;2023-02-01T04:40:23;4.90;99.90
6106;DHT22;3083;51.508;7.966;2023-02-01T04:42:50;4.90;99.90
6106;DHT22;3083;51.508;7.966;2023-02-01T04:45:21;4.80;99.90
6106;DHT22;3083;51.508;7.966;2023-02-01T04:47:51;4.90;99.90
6106;DHT22;3083;51.508;7.966;2023-02-01T04:50:17;4.90;99.90
6106;DHT22;3083;51.508;7.966;2023-02-01T04:52:49;4.90;99.90
6106;DHT22;3083;51.508;7.966;2023-02-01T04:55:16;4.90;99.90
6106;DHT22;3083;51.508;7.966;2023-02-01T04:57:43;4.90;99.90
6106;DHT22;3083;51.508;7.966;2023-02-01T05:00:13;4.90;99.90
6106;DHT22;3083;51.508;7.966;2023-02-01T05:02:41;4.90;99.90
6106;DHT22;3083;51.508;7.966;2023-02-01T05:05:08;4.90;99.90
6106;DHT22;3083;51.508;7.966;2023-02-01T05:07:35;4.90;99.90
6106;DHT22;3083;51.508;7.966;2023-02-01T05:10:02;4.90;99.90
6106;DHT22;3083;51.508;7.966;2023-02-01T05:12:31;4.90;99.90
6106;DHT22;3083;51.508;7.966;2023-02-01T05:15:18;4.90;99.90
6106;DHT22;3083;51.508;7.966;2023-02-01T05:17:46;4.90;99.90
6106;DHT22;3083;51.508;7.966;2023-02-01T05:20:13;4.90;99.90
6106;DHT22;3083;51.508;7.966;2023-02-01T05:22:41;4.90;99.90
6106;DHT22;3083;51.508;7.966;2023-02-01T05:25:08;4.90;99.90
6106;DHT22;3083;51.508;7.966;2023-02-01T05:27:35;5.00;99.90
6106;DHT22;3083;51.508;7.966;2023-02-01T05:30:03;5.00;99.90
6106;DHT22;3083;51.508;7.966;2023-02-01T05:32:30;5.00;99.90
6106;DHT22;3083;51.508;7.966;2023-02-01T05:35:01;5.00;99.90
6106;DHT22;3083;51.508;7.966;2023-02-01T05:37:28;5.00;99.90
6106;DHT22;3083;51.508;7.966;2023-02-01T05:39:58;5.00;99.90
6106;DHT22;3083;51.508;7.966;2023-02-01T05:42:25;5.00;99.90
6106;DHT22;3083;51.508;7.966;2023-02-01T05:44:52;5.00;99.90
6106;DHT22;3083;51.508;7.966;2023-02-01T05:47:19;5.00;99.90
6106;DHT22;3083;51.508;7.966;2023-02-01T05:49:46;5.00;99.90
6106;DHT22;3083;51.508;7.966;2023-02-01T05:52:14;5.00;99.90
6106;DHT22;3083;51.508;7.966;2023-02-01T05:54:46;5.00;99.90
6106;DHT22;3083;51.508;7.966;2023-02-01T05:57:13;5.00;99.90
6106;DHT22;3083;51.508;7.966;2023-02-01T05:59:40;5.00;99.90
6106;DHT22;3083;51.508;7.966;2023-02-01T06:02:10;5.00;99.90
6106;DHT22;3083;51.508;7.966;2023-02-01T06:04:37;5.00;99.90
6106;DHT22;3083;51.508;7.966;2023-02-01T06:07:05;5.00;99.90
6106;DHT22;3083;51.508;7.966;2023-02-01T06:09:33;5.00;99.90
6106;DHT22;3083;51.508;7.966;2023-02-01T06:12:03;5.00;99.90
6106;DHT22;3083;51.508;7.966;2023-02-01T06:14:30;5.00;99.90
6106;DHT22;3083;51.508;7.966;2023-02-01T06:16:56;5.00;99.90
6106;DHT22;3083;51.508;7.966;2023-02-01T06:19:24;5.00;99.90
6106;DHT22;3083;51.508;7.966;2023-02-01T06:21:51;5.00;99.90
6106;DHT22;3083;51.508;7.966;2023-02-01T06:24:18;5.00;99.90
6106;DHT22;3083;51.508;7.966;2023-02-01T06:26:49;5.00;99.90
6106;DHT22;3083;51.508;7.966;2023-02-01T06:29:16;5.00;99.90
6106;DHT22;3083;51.508;7.966;2023-02-01T06:31:43;5.00;99.90
6106;DHT22;3083;51.508;7.966;2023-02-01T06:34:12;5.10;99.90
6106;DHT22;3083;51.508;7.966;2023-02-01T06:36:42;5.00;99.90
6106;DHT22;3083;51.508;7.966;2023-02-01T06:39:12;5.00;99.90
6106;DHT22;3083;51.508;7.966;2023-02-01T06:41:41;5.00;99.90
6106;DHT22;3083;51.508;7.966;2023-02-01T06:44:09;5.10;99.90
6106;DHT22;3083;51.508;7.966;2023-02-01T06:46:36;5.10;99.90
6106;DHT22;3083;51.508;7.966;2023-02-01T06:49:03;5.10;99.90
6106;DHT22;3083;51.508;7.966;2023-02-01T06:51:30;5.00;99.90
6106;DHT22;3083;51.508;7.966;2023-02-01T06:53:57;5.10;99.90
6106;DHT22;3083;51.508;7.966;2023-02-01T06:56:25;5.10;99.90
6106;DHT22;3083;51.508;7.966;2023-02-01T06:58:52;5.00;99.90
6106;DHT22;3083;51.508;7.966;2023-02-01T07:01:21;5.00;99.90
6106;DHT22;3083;51.508;7.966;2023-02-01T07:03:48;5.00;99.90
6106;DHT22;3083;51.508;7.966;2023-02-01T07:06:16;5.00;99.90
6106;DHT22;3083;51.508;7.966;2023-02-01T07:08:48;5.00;99.90
6106;DHT22;3083;51.508;7.966;2023-02-01T07:11:16;5.00;99.90
6106;DHT22;3083;51.508;7.966;2023-02-01T07:13:44;5.00;99.90
6106;DHT22;3083;51.508;7.966;2023-02-01T07:16:13;5.00;99.90
6106;DHT22;3083;51.508;7.966;2023-02-01T07:18:41;5.00;99.90
6106;DHT22;3083;51.508;7.966;2023-02-01T07:21:10;5.00;99.90
6106;DHT22;3083;51.508;7.966;2023-02-01T07:23:37;5.00;99.90
6106;DHT22;3083;51.508;7.966;2023-02-01T07:26:06;5.00;99.90
6106;DHT22;3083;51.508;7.966;2023-02-01T07:28:35;5.00;99.90
6106;DHT22;3083;51.508;7.966;2023-02-01T07:31:03;5.00;99.90
6106;DHT22;3083;51.508;7.966;2023-02-01T07:33:33;5.00;99.90
6106;DHT22;3083;51.508;7.966;2023-02-01T07:36:06;5.00;99.90
6106;DHT22;3083;51.508;7.966;2023-02-01T07:38:35;5.00;99.90
6106;DHT22;3083;51.508;7.966;2023-02-01T07:41:04;5.00;99.90
6106;DHT22;3083;51.508;7.966;2023-02-01T07:43:32;5.10;99.90
6106;DHT22;3083;51.508;7.966;2023-02-01T07:45:59;5.10;99.90
6106;DHT22;3083;51.508;7.966;2023-02-01T07:48:27;5.10;99.90
6106;DHT22;3083;51.508;7.966;2023-02-01T07:50:58;5.10;99.90
6106;DHT22;3083;51.508;7.966;2023-02-01T07:53:29;5.10;99.90
6106;DHT22;3083;51.508;7.966;2023-02-01T07:55:56;5.10;99.90
6106;DHT22;3083;51.508;7.966;2023-02-01T07:58:24;5.10;99.90
6106;DHT22;3083;51.508;7.966;2023-02-01T08:00:53;5.10;99.90
6106;DHT22;3083;51.508;7.966;2023-02-01T08:03:41;5.10;99.90
6106;DHT22;3083;51.508;7.966;2023-02-01T08:06:07;5.10;99.90
6106;DHT22;3083;51.508;7.966;2023-02-01T08:08:36;5.10;99.90
6106;DHT22;3083;51.508;7.966;2023-02-01T08:11:06;5.10;99.90
6106;DHT22;3083;51.508;7.966;2023-02-01T08:13:36;5.10;99.90
6106;DHT22;3083;51.508;7.966;2023-02-01T08:16:08;5.10;99.90
6106;DHT22;3083;51.508;7.966;2023-02-01T08:18:36;5.20;99.90
6106;DHT22;3083;51.508;7.966;2023-02-01T08:21:07;5.20;99.90
6106;DHT22;3083;51.508;7.966;2023-02-01T08:23:39;5.20;99.90
6106;DHT22;3083;51.508;7.966;2023-02-01T08:26:07;5.20;99.90
6106;DHT22;3083;51.508;7.966;2023-02-01T08:28:35;5.20;99.90
6106;DHT22;3083;51.508;7.966;2023-02-01T08:31:05;5.20;99.90
6106;DHT22;3083;51.508;7.966;2023-02-01T08:33:32;5.20;99.90
6106;DHT22;3083;51.508;7.966;2023-02-01T08:36:01;5.20;99.90
6106;DHT22;3083;51.508;7.966;2023-02-01T08:38:28;5.20;99.90
6106;DHT22;3083;51.508;7.966;2023-02-01T08:40:56;5.20;99.90
6106;DHT22;3083;51.508;7.966;2023-02-01T08:43:24;5.30;99.90
6106;DHT22;3083;51.508;7.966;2023-02-01T08:45:54;5.20;99.90
6106;DHT22;3083;51.508;7.966;2023-02-01T08:48:24;5.20;99.90
6106;DHT22;3083;51.508;7.966;2023-02-01T08:50:53;5.20;99.90
6106;DHT22;3083;51.508;7.966;2023-02-01T08:53:20;5.30;99.90
6106;DHT22;3083;51.508;7.966;2023-02-01T08:55:47;5.30;99.90
6106;DHT22;3083;51.508;7.966;2023-02-01T08:58:23;5.30;99.90
6106;DHT22;3083;51.508;7.966;2023-02-01T09:00:50;5.30;99.90
6106;DHT22;3083;51.508;7.966;2023-02-01T09:03:26;5.30;99.90
6106;DHT22;3083;51.508;7.966;2023-02-01T09:06:00;5.40;99.90
6106;DHT22;3083;51.508;7.966;2023-02-01T09:08:27;5.50;99.90
6106;DHT22;3083;51.508;7.966;2023-02-01T09:10:58;5.50;99.90
6106;DHT22;3083;51.508;7.966;2023-02-01T09:13:30;5.60;99.90
6106;DHT22;3083;51.508;7.966;2023-02-01T09:15:57;5.50;99.90
6106;DHT22;3083;51.508;7.966;2023-02-01T09:18:25;5.50;99.90
6106;DHT22;3083;51.508;7.966;2023-02-01T09:20:52;5.50;99.90
6106;DHT22;3083;51.508;7.966;2023-02-01T09:23:19;5.50;99.90
6106;DHT22;3083;51.508;7.966;2023-02-01T09:25:47;5.50;99.90
6106;DHT22;3083;51.508;7.966;2023-02-01T09:28:15;5.50;99.90
6106;DHT22;3083;51.508;7.966;2023-02-01T09:30:44;5.50;99.90
6106;DHT22;3083;51.508;7.966;2023-02-01T09:33:14;5.50;99.90
6106;DHT22;3083;51.508;7.966;2023-02-01T09:35:43;5.50;99.90
6106;DHT22;3083;51.508;7.966;2023-02-01T09:38:10;5.50;99.90
6106;DHT22;3083;51.508;7.966;2023-02-01T09:40:42;5.50;99.90
6106;DHT22;3083;51.508;7.966;2023-02-01T09:43:21;5.50;99.90
6106;DHT22;3083;51.508;7.966;2023-02-01T09:45:59;5.60;99.90
6106;DHT22;3083;51.508;7.966;2023-02-01T09:48:32;5.60;99.90
6106;DHT22;3083;51.508;7.966;2023-02-01T09:51:04;5.60;99.90
6106;DHT22;3083;51.508;7.966;2023-02-01T09:53:38;5.60;99.90
6106;DHT22;3083;51.508;7.966;2023-02-01T09:56:08;5.60;99.90
6106;DHT22;3083;51.508;7.966;2023-02-01T09:58:39;5.70;99.90
6106;DHT22;3083;51.508;7.966;2023-02-01T10:01:15;5.70;99.90
6106;DHT22;3083;51.508;7.966;2023-02-01T10:03:43;5.70;99.90
6106;DHT22;3083;51.508;7.966;2023-02-01T10:06:27;5.70;99.90
6106;DHT22;3083;51.508;7.966;2023-02-01T10:11:57;5.70;99.90
6106;DHT22;3083;51.508;7.966;2023-02-01T10:14:44;5.70;99.90
6106;DHT22;3083;51.508;7.966;2023-02-01T10:17:25;5.80;99.90
6106;DHT22;3083;51.508;7.966;2023-02-01T10:20:07;5.90;99.90
6106;DHT22;3083;51.508;7.966;2023-02-01T10:22:41;5.90;99.90
6106;DHT22;3083;51.508;7.966;2023-02-01T10:25:14;5.90;99.90
6106;DHT22;3083;51.508;7.966;2023-02-01T10:27:47;6.00;99.90
6106;DHT22;3083;51.508;7.966;2023-02-01T10:30:21;6.00;99.90
6106;DHT22;3083;51.508;7.966;2023-02-01T10:32:55;6.00;99.90
6106;DHT22;3083;51.508;7.966;2023-02-01T10:35:27;6.10;99.90
6106;DHT22;3083;51.508;7.966;2023-02-01T10:37:58;6.10;99.90
6106;DHT22;3083;51.508;7.966;2023-02-01T10:40:27;6.10;99.90
6106;DHT22;3083;51.508;7.966;2023-02-01T10:42:58;6.10;99.90
6106;DHT22;3083;51.508;7.966;2023-02-01T10:45:28;6.10;99.90
6106;DHT22;3083;51.508;7.966;2023-02-01T10:47:59;6.20;99.90
6106;DHT22;3083;51.508;7.966;2023-02-01T10:50:37;6.20;99.90
6106;DHT22;3083;51.508;7.966;2023-02-01T10:53:15;6.20;99.90
6106;DHT22;3083;51.508;7.966;2023-02-01T10:55:48;6.30;99.90
6106;DHT22;3083;51.508;7.966;2023-02-01T10:58:20;6.30;99.90
6106;DHT22;3083;51.508;7.966;2023-02-01T11:00:52;6.30;99.90
6106;DHT22;3083;51.508;7.966;2023-02-01T11:03:39;6.30;99.90
6106;DHT22;3083;51.508;7.966;2023-02-01T11:08:54;6.30;99.90
6106;DHT22;3083;51.508;7.966;2023-02-01T11:11:22;6.20;99.90
6106;DHT22;3083;51.508;7.966;2023-02-01T11:13:56;6.20;99.90
6106;DHT22;3083;51.508;7.966;2023-02-01T11:16:31;6.10;99.90
6106;DHT22;3083;51.508;7.966;2023-02-01T11:19:01;6.10;99.90
6106;DHT22;3083;51.508;7.966;2023-02-01T11:21:28;6.10;99.90
6106;DHT22;3083;51.508;7.966;2023-02-01T11:23:55;6.10;99.90
6106;DHT22;3083;51.508;7.966;2023-02-01T11:26:29;6.10;99.90
6106;DHT22;3083;51.508;7.966;2023-02-01T11:29:00;6.10;99.90
6106;DHT22;3083;51.508;7.966;2023-02-01T11:31:28;6.10;99.90
6106;DHT22;3083;51.508;7.966;2023-02-01T11:34:04;6.10;99.90
6106;DHT22;3083;51.508;7.966;2023-02-01T11:36:35;6.10;99.90
6106;DHT22;3083;51.508;7.966;2023-02-01T11:39:21;6.00;99.90
6106;DHT22;3083;51.508;7.966;2023-02-01T11:42:00;6.00;99.90
6106;DHT22;3083;51.508;7.966;2023-02-01T11:44:33;6.00;99.90
6106;DHT22;3083;51.508;7.966;2023-02-01T11:47:20;6.00;99.90
6106;DHT22;3083;51.508;7.966;2023-02-01T11:49:50;6.00;99.90
6106;DHT22;3083;51.508;7.966;2023-02-01T11:52:25;6.00;99.90
6106;DHT22;3083;51.508;7.966;2023-02-01T11:55:15;6.00;99.90
6106;DHT22;3083;51.508;7.966;2023-02-01T11:57:53;6.00;99.90
6106;DHT22;3083;51.508;7.966;2023-02-01T12:04:04;6.10;99.90
6106;DHT22;3083;51.508;7.966;2023-02-01T12:06:48;6.20;99.90
6106;DHT22;3083;51.508;7.966;2023-02-01T12:09:41;6.30;99.90
6106;DHT22;3083;51.508;7.966;2023-02-01T12:12:17;6.30;99.90
6106;DHT22;3083;51.508;7.966;2023-02-01T12:14:56;6.40;99.90
6106;DHT22;3083;51.508;7.966;2023-02-01T12:17:54;6.40;99.90
6106;DHT22;3083;51.508;7.966;2023-02-01T12:20:38;6.40;99.90
6106;DHT22;3083;51.508;7.966;2023-02-01T12:23:23;6.40;99.90
6106;DHT22;3083;51.508;7.966;2023-02-01T12:26:03;6.40;99.90
6106;DHT22;3083;51.508;7.966;2023-02-01T12:28:53;6.40;99.90
6106;DHT22;3083;51.508;7.966;2023-02-01T12:34:28;6.30;99.90
6106;DHT22;3083;51.508;7.966;2023-02-01T12:37:08;6.20;99.90
6106;DHT22;3083;51.508;7.966;2023-02-01T12:39:40;6.10;99.90
6106;DHT22;3083;51.508;7.966;2023-02-01T12:42:14;6.00;99.90
6106;DHT22;3083;51.508;7.966;2023-02-01T12:44:49;5.90;99.90
6106;DHT22;3083;51.508;7.966;2023-02-01T12:47:22;5.90;99.90
6106;DHT22;3083;51.508;7.966;2023-02-01T12:50:01;5.80;99.90
6106;DHT22;3083;51.508;7.966;2023-02-01T12:52:34;5.80;99.90
6106;DHT22;3083;51.508;7.966;2023-02-01T12:55:09;5.70;99.90
6106;DHT22;3083;51.508;7.966;2023-02-01T12:57:44;5.70;99.90
6106;DHT22;3083;51.508;7.966;2023-02-01T13:00:20;5.70;99.90
6106;DHT22;3083;51.508;7.966;2023-02-01T13:02:54;5.60;99.90
6106;DHT22;3083;51.508;7.966;2023-02-01T13:05:31;5.60;99.90
6106;DHT22;3083;51.508;7.966;2023-02-01T13:08:05;5.60;99.90
6106;DHT22;3083;51.508;7.966;2023-02-01T13:10:39;5.70;99.90
6106;DHT22;3083;51.508;7.966;2023-02-01T13:13:14;5.60;99.90
6106;DHT22;3083;51.508;7.966;2023-02-01T13:15:46;5.70;99.90
6106;DHT22;3083;51.508;7.966;2023-02-01T13:18:20;5.70;99.90
6106;DHT22;3083;51.508;7.966;2023-02-01T13:20:53;5.70;99.90
6106;DHT22;3083;51.508;7.966;2023-02-01T13:23:26;5.80;99.90
6106;DHT22;3083;51.508;7.966;2023-02-01T13:25:56;5.80;99.90
6106;DHT22;3083;51.508;7.966;2023-02-01T13:28:26;5.80;99.90
6106;DHT22;3083;51.508;7.966;2023-02-01T13:31:25;5.80;99.90
6106;DHT22;3083;51.508;7.966;2023-02-01T13:34:32;5.80;99.90
6106;DHT22;3083;51.508;7.966;2023-02-01T13:37:12;5.80;99.90
6106;DHT22;3083;51.508;7.966;2023-02-01T13:39:51;5.80;99.90
6106;DHT22;3083;51.508;7.966;2023-02-01T13:42:26;5.80;99.90
6106;DHT22;3083;51.508;7.966;2023-02-01T13:44:58;5.80;99.90
6106;DHT22;3083;51.508;7.966;2023-02-01T13:47:28;5.70;99.90
6106;DHT22;3083;51.508;7.966;2023-02-01T13:49:59;5.70;99.90
6106;DHT22;3083;51.508;7.966;2023-02-01T13:52:32;5.70;99.90
6106;DHT22;3083;51.508;7.966;2023-02-01T13:55:03;5.60;99.90
6106;DHT22;3083;51.508;7.966;2023-02-01T13:57:42;5.60;99.90
6106;DHT22;3083;51.508;7.966;2023-02-01T14:00:24;5.60;99.90
6106;DHT22;3083;51.508;7.966;2023-02-01T14:03:13;5.60;99.90
6106;DHT22;3083;51.508;7.966;2023-02-01T14:09:14;5.60;99.90
6106;DHT22;3083;51.508;7.966;2023-02-01T14:11:45;5.60;99.90
6106;DHT22;3083;51.508;7.966;2023-02-01T14:14:43;5.60;99.90
6106;DHT22;3083;51.508;7.966;2023-02-01T14:17:34;5.70;99.90
6106;DHT22;3083;51.508;7.966;2023-02-01T14:23:38;5.70;99.90
6106;DHT22;3083;51.508;7.966;2023-02-01T14:26:13;5.80;99.90
6106;DHT22;3083;51.508;7.966;2023-02-01T14:28:44;5.90;99.90
6106;DHT22;3083;51.508;7.966;2023-02-01T14:31:28;5.90;99.90
6106;DHT22;3083;51.508;7.966;2023-02-01T14:33:59;5.90;99.90
6106;DHT22;3083;51.508;7.966;2023-02-01T14:36:40;6.00;99.90
6106;DHT22;3083;51.508;7.966;2023-02-01T14:39:24;6.00;99.90
6106;DHT22;3083;51.508;7.966;2023-02-01T14:41:55;6.00;99.90
6106;DHT22;3083;51.508;7.966;2023-02-01T14:44:32;6.00;99.90
6106;DHT22;3083;51.508;7.966;2023-02-01T14:47:32;6.00;99.90
6106;DHT22;3083;51.508;7.966;2023-02-01T14:50:27;6.00;99.90
6106;DHT22;3083;51.508;7.966;2023-02-01T14:53:17;6.00;99.90
6106;DHT22;3083;51.508;7.966;2023-02-01T14:55:48;5.90;99.90
6106;DHT22;3083;51.508;7.966;2023-02-01T14:58:25;5.90;99.90
6106;DHT22;3083;51.508;7.966;2023-02-01T15:00:55;5.80;99.90
6106;DHT22;3083;51.508;7.966;2023-02-01T15:03:34;5.80;99.90
6106;DHT22;3083;51.508;7.966;2023-02-01T15:06:03;5.80;99.90
6106;DHT22;3083;51.508;7.966;2023-02-01T15:08:33;5.80;99.90
6106;DHT22;3083;51.508;7.966;2023-02-01T15:11:06;5.80;99.90
6106;DHT22;3083;51.508;7.966;2023-02-01T15:13:35;5.90;99.90
6106;DHT22;3083;51.508;7.966;2023-02-01T15:16:10;5.90;99.90
6106;DHT22;3083;51.508;7.966;2023-02-01T15:18:39;5.90;99.90
6106;DHT22;3083;51.508;7.966;2023-02-01T15:21:12;6.00;99.90
6106;DHT22;3083;51.508;7.966;2023-02-01T15:23:41;6.00;99.90
6106;DHT22;3083;51.508;7.966;2023-02-01T15:26:08;6.00;99.90
6106;DHT22;3083;51.508;7.966;2023-02-01T15:28:35;6.00;99.90
6106;DHT22;3083;51.508;7.966;2023-02-01T15:31:04;6.00;99.90
6106;DHT22;3083;51.508;7.966;2023-02-01T15:33:31;6.10;99.90
6106;DHT22;3083;51.508;7.966;2023-02-01T15:36:09;6.10;99.90
6106;DHT22;3083;51.508;7.966;2023-02-01T15:38:42;6.10;99.90
6106;DHT22;3083;51.508;7.966;2023-02-01T15:41:14;6.10;99.90
6106;DHT22;3083;51.508;7.966;2023-02-01T15:43:43;6.10;99.90
6106;DHT22;3083;51.508;7.966;2023-02-01T15:46:15;6.10;99.90
6106;DHT22;3083;51.508;7.966;2023-02-01T15:48:45;6.10;99.90
6106;DHT22;3083;51.508;7.966;2023-02-01T15:51:20;6.20;99.90
6106;DHT22;3083;51.508;7.966;2023-02-01T15:53:50;6.20;99.90
6106;DHT22;3083;51.508;7.966;2023-02-01T15:56:25;6.20;99.90
6106;DHT22;3083;51.508;7.966;2023-02-01T15:58:55;6.20;99.90
6106;DHT22;3083;51.508;7.966;2023-02-01T16:01:23;6.10;99.90
6106;DHT22;3083;51.508;7.966;2023-02-01T16:04:03;6.10;99.90
6106;DHT22;3083;51.508;7.966;2023-02-01T16:06:32;6.00;99.90
6106;DHT22;3083;51.508;7.966;2023-02-01T16:09:07;6.00;99.90
6106;DHT22;3083;51.508;7.966;2023-02-01T16:11:45;6.00;99.90
6106;DHT22;3083;51.508;7.966;2023-02-01T16:14:14;6.00;99.90
6106;DHT22;3083;51.508;7.966;2023-02-01T16:16:41;6.10;99.90
6106;DHT22;3083;51.508;7.966;2023-02-01T16:19:08;6.00;99.90
6106;DHT22;3083;51.508;7.966;2023-02-01T16:21:36;6.00;99.90
6106;DHT22;3083;51.508;7.966;2023-02-01T16:24:04;6.00;99.90
6106;DHT22;3083;51.508;7.966;2023-02-01T16:26:32;6.00;99.90
6106;DHT22;3083;51.508;7.966;2023-02-01T16:28:59;6.00;99.90
6106;DHT22;3083;51.508;7.966;2023-02-01T16:31:34;5.90;99.90
6106;DHT22;3083;51.508;7.966;2023-02-01T16:34:01;5.90;99.90
6106;DHT22;3083;51.508;7.966;2023-02-01T16:36:28;5.90;99.90
6106;DHT22;3083;51.508;7.966;2023-02-01T16:38:57;5.80;99.90
6106;DHT22;3083;51.508;7.966;2023-02-01T16:41:24;5.80;99.90
6106;DHT22;3083;51.508;7.966;2023-02-01T16:43:54;5.80;99.90
6106;DHT22;3083;51.508;7.966;2023-02-01T16:46:24;5.80;99.90
6106;DHT22;3083;51.508;7.966;2023-02-01T16:48:54;5.90;99.90
6106;DHT22;3083;51.508;7.966;2023-02-01T16:51:23;5.90;99.90
6106;DHT22;3083;51.508;7.966;2023-02-01T16:53:50;5.90;99.90
6106;DHT22;3083;51.508;7.966;2023-02-01T16:56:21;6.00;99.90
6106;DHT22;3083;51.508;7.966;2023-02-01T16:58:48;6.00;99.90
6106;DHT22;3083;51.508;7.966;2023-02-01T17:01:17;6.00;99.90
6106;DHT22;3083;51.508;7.966;2023-02-01T17:03:44;6.00;99.90
6106;DHT22;3083;51.508;7.966;2023-02-01T17:06:14;5.90;99.90
6106;DHT22;3083;51.508;7.966;2023-02-01T17:08:44;5.80;99.90
6106;DHT22;3083;51.508;7.966;2023-02-01T17:11:12;5.80;99.90